createdAt,value
2018-09-24T00:00:44.541Z,99.90
2018-09-24T00:03:14.286Z,1.00
2018-09-24T00:05:44.149Z,99.90
2018-09-24T00:08:13.805Z,1.00
2018-09-24T00:10:43.590Z,1.00
2018-09-24T00:13:13.325Z,1.00
2018-09-24T00:15:42.829Z,1.00
2018-09-24T00:18:12.700Z,99.90
2018-09-24T00:20:42.344Z,1.00
2018-09-24T00:23:11.851Z,1.00
2018-09-24T00:25:41.521Z,10.20
2018-09-24T00:28:12.252Z,13.90
2018-09-24T00:30:41.905Z,8.30
2018-09-24T00:33:11.586Z,1.00
2018-09-24T00:35:41.225Z,1.00
2018-09-24T00:38:11.049Z,99.90
2018-09-24T00:40:40.910Z,1.00
2018-09-24T00:43:10.577Z,1.00
2018-09-24T00:45:40.327Z,99.90
2018-09-24T00:48:09.873Z,99.90
2018-09-24T00:50:39.565Z,99.90
2018-09-24T00:53:09.252Z,99.90
2018-09-24T00:55:39.021Z,99.90
2018-09-24T00:58:08.777Z,99.90
2018-09-24T01:00:38.513Z,99.90
2018-09-24T01:03:08.298Z,99.90
2018-09-24T01:05:37.958Z,99.90
2018-09-24T01:08:07.746Z,99.90
2018-09-24T01:10:37.493Z,99.90
2018-09-24T01:13:07.302Z,99.90
2018-09-24T01:15:37.153Z,1.00
2018-09-24T01:18:06.700Z,1.00
2018-09-24T01:20:36.301Z,1.00
2018-09-24T01:23:06.076Z,1.00
2018-09-24T01:25:35.727Z,1.00
2018-09-24T01:28:05.707Z,1.00
2018-09-24T01:30:35.440Z,99.90
2018-09-24T01:33:05.017Z,1.00
2018-09-24T01:35:34.775Z,1.00
2018-09-24T01:38:04.495Z,1.00
2018-09-24T01:40:34.681Z,1.00
2018-09-24T01:43:04.399Z,1.00
2018-09-24T01:45:34.123Z,99.90
2018-09-24T01:48:03.976Z,1.00
2018-09-24T01:50:33.762Z,42.60
2018-09-24T01:53:06.295Z,1.00
2018-09-24T01:55:36.540Z,1.00
2018-09-24T01:58:06.255Z,99.90
2018-09-24T02:00:35.849Z,34.90
2018-09-24T02:03:05.524Z,99.90
2018-09-24T02:05:35.299Z,13.90
2018-09-24T02:08:05.052Z,52.60
2018-09-24T02:10:34.710Z,87.60
2018-09-24T02:13:04.685Z,90.00
2018-09-24T02:15:34.529Z,91.30
2018-09-24T02:18:04.312Z,91.60
2018-09-24T02:20:34.174Z,91.80
2018-09-24T02:23:03.941Z,91.50
2018-09-24T02:25:33.982Z,91.10
2018-09-24T02:28:04.913Z,91.40
2018-09-24T02:30:34.741Z,91.30
2018-09-24T02:33:08.324Z,91.10
2018-09-24T02:35:38.249Z,91.00
2018-09-24T02:38:07.920Z,91.30
2018-09-24T02:40:37.548Z,91.10
2018-09-24T02:43:07.342Z,91.00
2018-09-24T02:45:36.992Z,91.10
2018-09-24T02:48:06.647Z,91.20
2018-09-24T02:50:39.568Z,91.10
2018-09-24T02:53:10.084Z,90.90
2018-09-24T02:55:39.735Z,90.70
2018-09-24T02:58:13.950Z,91.30
2018-09-24T03:00:43.848Z,90.80
2018-09-24T03:03:13.849Z,91.10
2018-09-24T03:05:44.156Z,91.20
2018-09-24T03:08:14.689Z,91.00
2018-09-24T03:10:44.529Z,91.00
2018-09-24T03:13:17.107Z,91.50
2018-09-24T03:15:53.380Z,91.20
2018-09-24T03:18:26.815Z,91.50
2018-09-24T03:20:56.452Z,91.20
2018-09-24T03:23:26.148Z,90.80
2018-09-24T03:25:55.903Z,90.40
2018-09-24T03:28:25.668Z,90.10
2018-09-24T03:30:55.416Z,89.70
2018-09-24T03:33:25.000Z,88.10
2018-09-24T03:35:54.692Z,88.60
2018-09-24T03:38:24.361Z,88.10
2018-09-24T03:40:54.011Z,86.20
2018-09-24T03:43:23.573Z,84.70
2018-09-24T03:45:53.465Z,84.60
2018-09-24T03:48:23.091Z,85.80
2018-09-24T03:50:52.788Z,84.30
2018-09-24T03:53:22.562Z,84.80
2018-09-24T03:55:52.200Z,83.80
2018-09-24T03:58:21.896Z,84.20
2018-09-24T04:00:52.148Z,84.00
2018-09-24T04:03:22.017Z,83.50
2018-09-24T04:05:56.721Z,81.10
2018-09-24T04:08:31.341Z,81.40
2018-09-24T04:11:06.155Z,82.90
2018-09-24T04:13:40.949Z,82.30
2018-09-24T04:16:15.644Z,81.60
2018-09-24T04:18:50.256Z,82.10
2018-09-24T04:21:25.166Z,82.70
2018-09-24T04:23:59.980Z,81.90
2018-09-24T04:26:34.825Z,82.40
2018-09-24T04:29:09.590Z,82.40
2018-09-24T04:31:44.384Z,83.10
2018-09-24T04:34:19.140Z,83.20
2018-09-24T04:36:53.771Z,82.90
2018-09-24T04:39:28.725Z,82.50
2018-09-24T04:42:03.385Z,82.90
2018-09-24T04:44:38.329Z,82.50
2018-09-24T04:47:13.141Z,84.10
2018-09-24T04:49:47.768Z,83.00
2018-09-24T04:52:22.453Z,83.40
2018-09-24T04:54:57.401Z,82.40
2018-09-24T04:57:32.009Z,83.90
2018-09-24T05:00:06.673Z,82.60
2018-09-24T05:02:41.319Z,82.40
2018-09-24T05:05:16.019Z,81.60
2018-09-24T05:07:50.775Z,81.20
2018-09-24T05:10:25.512Z,81.50
2018-09-24T05:13:00.109Z,82.00
2018-09-24T05:15:34.620Z,82.60
2018-09-24T05:18:09.319Z,82.00
2018-09-24T05:20:43.938Z,81.90
2018-09-24T05:23:18.633Z,82.40
2018-09-24T05:25:53.383Z,83.60
2018-09-24T05:28:28.165Z,85.60
2018-09-24T05:31:02.784Z,86.00
2018-09-24T05:33:37.945Z,85.80
2018-09-24T05:36:12.455Z,86.70
2018-09-24T05:38:47.273Z,84.70
2018-09-24T05:41:22.186Z,85.70
2018-09-24T05:43:56.808Z,87.90
2018-09-24T05:46:31.612Z,87.30
2018-09-24T05:49:06.264Z,87.00
2018-09-24T05:51:40.881Z,82.40
2018-09-24T05:54:15.480Z,85.30
2018-09-24T05:56:50.252Z,88.40
2018-09-24T05:59:24.990Z,84.90
2018-09-24T06:01:59.676Z,82.30
2018-09-24T06:04:34.793Z,82.20
2018-09-24T06:07:09.489Z,81.30
2018-09-24T06:09:44.184Z,82.40
2018-09-24T06:12:18.819Z,84.10
2018-09-24T06:14:53.458Z,82.40
2018-09-24T06:17:28.049Z,82.70
2018-09-24T06:20:02.939Z,82.70
2018-09-24T06:22:37.619Z,81.60
2018-09-24T06:25:12.700Z,79.50
2018-09-24T06:27:47.633Z,80.40
2018-09-24T06:30:22.444Z,81.20
2018-09-24T06:32:57.396Z,80.80
2018-09-24T06:35:32.116Z,83.50
2018-09-24T06:38:06.837Z,80.70
2018-09-24T06:40:41.485Z,79.10
2018-09-24T06:43:19.372Z,78.80
2018-09-24T06:45:54.089Z,75.60
2018-09-24T06:48:28.781Z,78.70
2018-09-24T06:51:03.665Z,78.90
2018-09-24T06:53:38.459Z,77.80
2018-09-24T06:56:13.124Z,77.20
2018-09-24T06:58:47.977Z,76.80
2018-09-24T07:01:22.777Z,78.40
2018-09-24T07:03:57.629Z,78.40
2018-09-24T07:06:32.538Z,77.60
2018-09-24T07:09:07.676Z,70.80
2018-09-24T07:11:42.301Z,74.30
2018-09-24T07:14:16.796Z,77.80
2018-09-24T07:16:51.398Z,77.70
2018-09-24T07:19:26.103Z,79.20
2018-09-24T07:22:00.877Z,78.20
2018-09-24T07:24:35.513Z,77.30
2018-09-24T07:27:10.153Z,77.30
2018-09-24T07:29:45.109Z,79.10
2018-09-24T07:32:19.761Z,76.10
2018-09-24T07:34:54.404Z,78.70
2018-09-24T07:37:28.844Z,77.60
2018-09-24T07:40:03.457Z,76.80
2018-09-24T07:42:38.020Z,74.60
2018-09-24T07:45:12.920Z,74.00
2018-09-24T07:47:47.636Z,74.50
2018-09-24T07:50:22.476Z,73.20
2018-09-24T07:52:57.164Z,75.60
2018-09-24T07:55:31.899Z,76.90
2018-09-24T07:58:06.781Z,74.10
2018-09-24T08:00:41.304Z,75.20
2018-09-24T08:03:16.226Z,75.80
2018-09-24T08:05:50.933Z,76.30
2018-09-24T08:08:25.747Z,76.70
2018-09-24T08:11:00.539Z,76.80
2018-09-24T08:13:35.265Z,76.00
2018-09-24T08:16:10.145Z,77.10
2018-09-24T08:18:44.712Z,74.20
2018-09-24T08:21:19.553Z,75.80
2018-09-24T08:23:54.224Z,76.60
2018-09-24T08:26:28.813Z,77.60
2018-09-24T08:29:03.409Z,78.00
2018-09-24T08:31:38.154Z,71.00
2018-09-24T08:34:12.788Z,71.60
2018-09-24T08:36:47.797Z,64.00
2018-09-24T08:39:22.623Z,1.00
2018-09-24T08:41:57.280Z,99.90
2018-09-24T08:44:31.966Z,1.00
2018-09-24T08:47:06.602Z,99.90
2018-09-24T08:49:41.540Z,99.90
2018-09-24T08:52:16.208Z,1.00
2018-09-24T08:54:50.808Z,71.00
2018-09-24T08:57:25.468Z,68.10
2018-09-24T09:00:00.086Z,71.30
2018-09-24T09:02:34.832Z,70.10
2018-09-24T09:05:09.802Z,71.00
2018-09-24T09:07:44.635Z,69.80
2018-09-24T09:10:19.310Z,73.40
2018-09-24T09:12:54.045Z,72.60
2018-09-24T09:15:28.605Z,71.30
2018-09-24T09:18:03.172Z,72.30
2018-09-24T09:20:37.636Z,73.60
2018-09-24T09:23:12.269Z,73.40
2018-09-24T09:25:47.076Z,74.80
2018-09-24T09:28:21.669Z,71.10
2018-09-24T09:30:56.280Z,75.40
2018-09-24T09:33:31.008Z,76.40
2018-09-24T09:36:05.825Z,78.40
2018-09-24T09:38:40.666Z,76.30
2018-09-24T09:41:15.299Z,71.30
2018-09-24T09:43:50.301Z,76.20
2018-09-24T09:46:24.960Z,66.40
2018-09-24T09:48:59.620Z,1.00
2018-09-24T09:51:34.370Z,99.90
2018-09-24T09:54:09.220Z,99.90
2018-09-24T09:56:43.776Z,99.90
2018-09-24T09:59:18.697Z,99.90
2018-09-24T10:01:53.508Z,99.90
2018-09-24T10:04:28.383Z,99.90
2018-09-24T10:07:02.975Z,99.90
2018-09-24T10:09:37.605Z,99.90
2018-09-24T10:12:12.436Z,99.90
2018-09-24T10:14:47.118Z,99.90
2018-09-24T10:17:21.768Z,99.90
2018-09-24T10:19:56.576Z,99.90
2018-09-24T10:22:31.325Z,99.90
2018-09-24T10:25:06.165Z,99.90
2018-09-24T10:27:40.872Z,99.90
2018-09-24T10:30:15.589Z,99.90
2018-09-24T10:32:50.227Z,99.90
2018-09-24T10:35:24.748Z,99.90
2018-09-24T10:37:59.460Z,99.90
2018-09-24T10:40:34.204Z,99.90
2018-09-24T10:43:09.124Z,1.00
2018-09-24T10:45:43.958Z,99.90
2018-09-24T10:48:18.897Z,99.90
2018-09-24T10:50:53.704Z,99.90
2018-09-24T10:53:28.391Z,99.90
2018-09-24T10:56:03.013Z,99.90
2018-09-24T10:58:37.601Z,99.90
2018-09-24T11:01:12.293Z,99.90
2018-09-24T11:03:47.392Z,99.90
2018-09-24T11:06:22.407Z,99.90
2018-09-24T11:08:56.924Z,99.90
2018-09-24T11:11:31.742Z,99.90
2018-09-24T11:14:06.557Z,99.90
2018-09-24T11:16:41.436Z,99.90
2018-09-24T11:19:15.972Z,99.90
2018-09-24T11:21:50.605Z,99.90
2018-09-24T11:24:25.225Z,99.90
2018-09-24T11:26:59.864Z,99.90
2018-09-24T11:29:34.591Z,99.90
2018-09-24T11:32:09.250Z,99.90
2018-09-24T11:34:43.943Z,99.90
2018-09-24T11:37:18.488Z,99.90
2018-09-24T11:39:53.230Z,99.90
2018-09-24T11:42:27.997Z,99.90
2018-09-24T11:45:02.719Z,99.90
2018-09-24T11:47:37.422Z,99.90
2018-09-24T11:50:12.068Z,99.90
2018-09-24T11:52:46.582Z,99.90
2018-09-24T11:55:21.403Z,99.90
2018-09-24T11:57:56.439Z,99.90
2018-09-24T12:00:31.285Z,99.90
2018-09-24T12:03:05.949Z,99.90
2018-09-24T12:05:40.823Z,99.90
2018-09-24T12:08:15.584Z,99.90
2018-09-24T12:10:50.588Z,99.90
2018-09-24T12:13:25.323Z,99.90
2018-09-24T12:16:00.173Z,99.90
2018-09-24T12:18:34.973Z,99.90
2018-09-24T12:21:09.772Z,99.90
2018-09-24T12:23:44.402Z,99.90
2018-09-24T12:26:19.096Z,1.00
2018-09-24T12:28:53.720Z,1.00
2018-09-24T12:31:28.432Z,1.00
2018-09-24T12:34:03.072Z,1.00
2018-09-24T12:36:37.699Z,99.90
2018-09-24T12:39:13.443Z,1.00
2018-09-24T12:41:47.830Z,1.00
2018-09-24T12:44:22.475Z,99.90
2018-09-24T12:46:57.112Z,99.90
2018-09-24T12:49:31.753Z,1.00
2018-09-24T12:52:06.404Z,99.90
2018-09-24T12:54:41.036Z,1.00
2018-09-24T12:57:16.194Z,1.00
2018-09-24T12:59:50.964Z,1.00
2018-09-24T13:02:25.590Z,1.00
2018-09-24T13:05:00.205Z,1.00
2018-09-24T13:07:34.592Z,1.00
2018-09-24T13:10:09.442Z,1.00
2018-09-24T13:12:44.251Z,1.00
2018-09-24T13:15:19.009Z,1.00
2018-09-24T13:17:53.639Z,1.00
2018-09-24T13:20:28.508Z,1.00
2018-09-24T13:23:03.424Z,1.00
2018-09-24T13:25:38.784Z,1.00
2018-09-24T13:28:13.531Z,1.00
2018-09-24T13:30:48.276Z,99.90
2018-09-24T13:33:22.788Z,1.00
2018-09-24T13:35:57.720Z,1.00
2018-09-24T13:38:32.326Z,1.00
2018-09-24T13:41:06.999Z,99.90
2018-09-24T13:43:41.662Z,1.00
2018-09-24T13:46:16.300Z,1.00
2018-09-24T13:48:50.889Z,1.00
2018-09-24T13:51:25.508Z,1.00
2018-09-24T13:54:00.144Z,1.00
2018-09-24T13:56:34.767Z,1.00
2018-09-24T13:59:09.376Z,1.00
2018-09-24T14:01:44.000Z,1.00
2018-09-24T14:04:18.668Z,1.00
2018-09-24T14:06:53.261Z,21.50
2018-09-24T14:09:27.863Z,18.10
2018-09-24T14:12:02.768Z,37.00
2018-09-24T14:14:37.505Z,27.50
2018-09-24T14:17:12.057Z,30.50
2018-09-24T14:19:47.062Z,16.10
2018-09-24T14:22:21.585Z,21.30
2018-09-24T14:24:56.108Z,15.60
2018-09-24T14:27:30.636Z,17.60
2018-09-24T14:30:05.160Z,20.20
2018-09-24T14:32:39.560Z,40.30
2018-09-24T14:35:13.993Z,52.70
2018-09-24T14:37:48.561Z,55.30
2018-09-24T14:40:23.273Z,55.90
2018-09-24T14:42:58.021Z,56.70
2018-09-24T14:45:32.917Z,55.50
2018-09-24T14:48:07.677Z,66.40
2018-09-24T14:50:42.487Z,66.00
2018-09-24T14:53:17.317Z,67.00
2018-09-24T14:55:51.938Z,69.80
2018-09-24T14:58:26.629Z,70.30
2018-09-24T15:01:01.474Z,71.60
2018-09-24T15:03:36.509Z,70.50
2018-09-24T15:06:11.441Z,67.30
2018-09-24T15:08:46.236Z,68.80
2018-09-24T15:11:23.124Z,71.50
2018-09-24T15:13:57.904Z,71.20
2018-09-24T15:16:32.398Z,75.10
2018-09-24T15:19:07.056Z,71.80
2018-09-24T15:21:41.957Z,81.50
2018-09-24T15:24:16.620Z,83.40
2018-09-24T15:26:51.004Z,80.80
2018-09-24T15:29:25.372Z,82.10
2018-09-24T15:31:59.740Z,78.40
2018-09-24T15:34:34.677Z,80.60
2018-09-24T15:37:09.399Z,71.60
2018-09-24T15:39:44.137Z,70.30
2018-09-24T15:42:18.754Z,71.30
2018-09-24T15:44:53.533Z,74.10
2018-09-24T15:47:28.957Z,72.00
2018-09-24T15:50:03.557Z,72.50
2018-09-24T15:52:41.181Z,71.50
2018-09-24T15:55:15.726Z,73.50
2018-09-24T15:57:50.396Z,73.00
2018-09-24T16:00:25.429Z,72.00
2018-09-24T16:03:00.388Z,74.90
2018-09-24T16:05:35.000Z,72.60
2018-09-24T16:08:09.714Z,72.10
2018-09-24T16:10:44.353Z,69.80
2018-09-24T16:13:19.005Z,71.20
2018-09-24T16:15:53.643Z,71.10
2018-09-24T16:18:28.481Z,73.10
2018-09-24T16:21:02.837Z,71.30
2018-09-24T16:23:37.430Z,75.00
2018-09-24T16:26:12.505Z,74.40
2018-09-24T16:28:47.760Z,74.70
2018-09-24T16:31:22.657Z,75.80
2018-09-24T16:33:57.500Z,76.20
2018-09-24T16:36:32.545Z,75.80
2018-09-24T16:39:07.728Z,74.90
2018-09-24T16:41:42.675Z,75.80
2018-09-24T16:44:17.480Z,75.90
2018-09-24T16:46:52.600Z,76.50
2018-09-24T16:49:27.555Z,78.80
2018-09-24T16:52:02.742Z,79.30
2018-09-24T16:54:37.621Z,79.20
2018-09-24T16:57:12.674Z,81.50
2018-09-24T16:59:47.316Z,79.30
2018-09-24T17:02:22.712Z,77.60
2018-09-24T17:04:58.136Z,76.70
2018-09-24T17:07:33.743Z,79.00
2018-09-24T17:10:08.722Z,78.50
2018-09-24T17:12:43.868Z,79.80
2018-09-24T17:15:19.151Z,78.70
2018-09-24T17:17:54.168Z,78.00
2018-09-24T17:20:29.221Z,76.50
2018-09-24T17:23:03.905Z,78.50
2018-09-24T17:25:38.374Z,80.00
2018-09-24T17:28:12.750Z,77.80
2018-09-24T17:30:47.058Z,79.70
2018-09-24T17:33:21.353Z,79.70
2018-09-24T17:35:56.021Z,79.20
2018-09-24T17:38:30.386Z,76.70
2018-09-24T17:41:04.668Z,76.00
2018-09-24T17:43:38.968Z,75.20
2018-09-24T17:46:13.463Z,75.40
2018-09-24T17:48:47.701Z,74.30
2018-09-24T17:51:22.060Z,73.80
2018-09-24T17:53:56.432Z,75.30
2018-09-24T17:56:30.803Z,76.30
2018-09-24T17:59:05.224Z,73.70
2018-09-24T18:01:39.729Z,70.20
2018-09-24T18:04:14.100Z,73.70
2018-09-24T18:06:48.710Z,72.20
2018-09-24T18:09:23.005Z,73.20
2018-09-24T18:11:57.379Z,71.50
2018-09-24T18:14:31.640Z,69.20
2018-09-24T18:17:08.755Z,71.60
2018-09-24T18:19:45.392Z,71.30
2018-09-24T18:22:19.796Z,71.40
2018-09-24T18:24:54.181Z,69.80
2018-09-24T18:27:28.590Z,67.90
2018-09-24T18:30:02.968Z,66.20
2018-09-24T18:32:37.387Z,65.70
2018-09-24T18:35:12.356Z,69.80
2018-09-24T18:40:18.768Z,68.00
2018-09-24T18:42:53.207Z,69.20
2018-09-24T18:45:27.566Z,68.40
2018-09-24T18:48:02.145Z,65.80
2018-09-24T18:50:36.906Z,65.60
2018-09-24T18:53:11.592Z,63.20
2018-09-24T18:55:45.884Z,68.30
2018-09-24T18:58:20.308Z,65.40
2018-09-24T19:00:54.775Z,68.30
2018-09-24T19:03:29.112Z,66.80
2018-09-24T19:06:03.408Z,67.90
2018-09-24T19:08:37.820Z,68.00
2018-09-24T19:11:12.163Z,66.50
2018-09-24T19:13:46.556Z,67.90
2018-09-24T19:16:20.960Z,69.70
2018-09-24T19:18:55.336Z,68.90
2018-09-24T19:21:29.632Z,70.00
2018-09-24T19:24:04.016Z,68.70
2018-09-24T19:26:38.404Z,69.30
2018-09-24T19:29:12.826Z,69.00
2018-09-24T19:31:47.179Z,69.00
2018-09-24T19:34:21.565Z,68.60
2018-09-24T19:36:55.986Z,72.30
2018-09-24T19:39:30.403Z,70.90
2018-09-24T19:42:04.709Z,70.80
2018-09-24T19:44:39.125Z,70.60
2018-09-24T19:47:13.688Z,70.00
2018-09-24T19:49:48.308Z,72.00
2018-09-24T19:52:23.669Z,71.80
2018-09-24T19:54:58.216Z,71.40
2018-09-24T19:57:32.517Z,73.00
2018-09-24T20:00:06.904Z,69.00
2018-09-24T20:02:41.603Z,70.20
2018-09-24T20:05:16.163Z,70.30
2018-09-24T20:07:50.585Z,67.90
2018-09-24T20:10:25.636Z,73.40
2018-09-24T20:13:00.112Z,69.10
2018-09-24T20:15:34.504Z,72.60
2018-09-24T20:18:09.248Z,75.40
2018-09-24T20:20:44.008Z,70.70
2018-09-24T20:23:18.473Z,71.40
2018-09-24T20:25:53.095Z,70.50
2018-09-24T20:28:27.492Z,70.70
2018-09-24T20:31:02.101Z,72.50
2018-09-24T20:33:37.556Z,69.30
2018-09-24T20:36:11.936Z,69.60
2018-09-24T20:38:46.829Z,72.20
2018-09-24T20:41:21.669Z,71.60
2018-09-24T20:43:56.028Z,71.20
2018-09-24T20:46:30.753Z,68.00
2018-09-24T20:49:05.444Z,68.00
2018-09-24T20:51:40.312Z,68.20
2018-09-24T20:54:15.150Z,68.80
2018-09-24T20:56:49.692Z,71.50
2018-09-24T20:59:24.531Z,70.60
2018-09-24T21:01:59.172Z,69.50
2018-09-24T21:04:33.793Z,69.50
2018-09-24T21:07:08.274Z,70.00
2018-09-24T21:09:43.006Z,69.50
2018-09-24T21:12:17.725Z,70.60
2018-09-24T21:14:52.526Z,70.00
2018-09-24T21:17:27.224Z,70.40
2018-09-24T21:20:01.968Z,70.20
2018-09-24T21:22:36.589Z,70.90
2018-09-24T21:25:11.282Z,70.50
2018-09-24T21:27:45.943Z,69.30
2018-09-24T21:30:20.618Z,70.80
2018-09-24T21:32:55.171Z,71.20
2018-09-24T21:35:30.174Z,71.60
2018-09-24T21:38:05.040Z,71.60
2018-09-24T21:40:39.648Z,71.00
2018-09-24T21:43:14.301Z,70.30
2018-09-24T21:45:49.005Z,71.20
2018-09-24T21:48:23.647Z,73.30
2018-09-24T21:50:58.641Z,70.50
2018-09-24T21:53:33.674Z,71.60
2018-09-24T21:56:08.609Z,72.70
2018-09-24T21:58:43.365Z,71.40
2018-09-24T22:01:18.062Z,70.40
2018-09-24T22:03:52.930Z,72.80
2018-09-24T22:06:27.568Z,73.80
2018-09-24T22:09:02.433Z,70.90
2018-09-24T22:11:37.076Z,70.90
2018-09-24T22:14:12.111Z,70.70
2018-09-24T22:16:46.912Z,72.80
2018-09-24T22:19:21.532Z,72.20
2018-09-24T22:21:56.244Z,70.70
2018-09-24T22:24:31.127Z,73.80
2018-09-24T22:27:05.824Z,71.60
2018-09-24T22:29:40.460Z,71.80
2018-09-24T22:32:15.388Z,70.90
2018-09-24T22:34:50.442Z,71.60
2018-09-24T22:37:25.192Z,73.00
2018-09-24T22:39:59.832Z,71.50
2018-09-24T22:42:34.504Z,72.10
2018-09-24T22:45:09.395Z,73.00
2018-09-24T22:47:44.211Z,72.00
2018-09-24T22:50:18.883Z,72.80
2018-09-24T22:52:53.620Z,72.40
2018-09-24T22:55:28.569Z,72.10
2018-09-24T22:58:03.229Z,73.90
2018-09-24T23:00:38.097Z,73.70
2018-09-24T23:03:12.889Z,74.70
2018-09-24T23:05:47.474Z,72.80
2018-09-24T23:08:22.098Z,73.50
2018-09-24T23:10:56.860Z,71.20
2018-09-24T23:13:31.327Z,73.90
2018-09-24T23:16:05.765Z,73.50
2018-09-24T23:18:40.485Z,74.50
2018-09-24T23:21:15.430Z,74.90
2018-09-24T23:23:50.116Z,72.10
2018-09-24T23:26:24.987Z,72.20
2018-09-24T23:28:59.797Z,72.80
2018-09-24T23:31:34.653Z,73.70
2018-09-24T23:34:09.379Z,75.50
2018-09-24T23:36:44.036Z,73.20
2018-09-24T23:39:18.740Z,74.30
2018-09-24T23:41:53.256Z,73.40
2018-09-24T23:44:28.053Z,72.90
2018-09-24T23:47:02.778Z,72.00
2018-09-24T23:49:37.632Z,72.00
2018-09-24T23:52:12.678Z,75.20
2018-09-24T23:54:47.368Z,75.40
2018-09-24T23:57:22.117Z,76.60
2018-09-24T23:59:57.302Z,77.40
